Impacts METAR Board
IDs:

KCVG - Cincinnati Intl, KY, US

Updated at: 1700 UTC 24 Sep 2018
Potential Impact None Slight Moderate High
Time 24/05Z 24/06Z 24/07Z 24/08Z 24/09Z 24/10Z 24/11Z 24/12Z 24/13Z 24/14Z 24/15Z 24/16Z 24/17Z
Temp64 64 63 63 62 63 63 64 65 66 66 68 68
Dewpt59 59 60 61 62 63 63 64 65 66 66 68 68
Altim30.11 30.11 30.10 30.10 30.10 30.10 30.11 30.11 30.12 30.12 30.12 30.12 30.11
VIS10 10 10 10 6 8 5 6 1 3 3 3 3
CIG12 11 9 7 7 5 4 4 4 50 33 80 6
CoverOVCOVCOVCOVCOVCOVCOVCOVCOVCOVCOVCOVCOVC
FltCatMVFRMVFRIFRIFRIFRIFRLIFRLIFRLIFRMVFRMVFRMVFRIFR
WX---------RA BR-RA-RA BR-RA BRBR-RA BR-RA-RA BR-RA BR
WDir10090100100908090110120140130140140
WSpd8 6 8 4 5 6 7 6 6 8 9 9 9
WGst-- -- -- -- -- -- -- -- -- -- -- -- --
Raw hourly METARs
KCVG 240452Z 10008KT 10SM OVC012 18/15 A3011 RMK AO2 SLP191 T01780150 402220144
KCVG 240552Z 09006KT 10SM OVC011 18/15 A3011 RMK AO2 SLP188 T01780150 10200 20178 58004
KCVG 240652Z 10008KT 10SM OVC009 17/16 A3010 RMK AO2 SLP185 T01720156
KCVG 240752Z 10004KT 10SM OVC007 17/16 A3010 RMK AO2 RAB03E27 SLP184 P0001 T01720161
KCVG 240852Z 09005KT 6SM -RA BR BKN007 OVC019 17/17 A3010 RMK AO2 RAB02 SLP186 VIS LWR NW-NE P0021 60022 T01670167 55002 $
KCVG 240952Z 08006KT 8SM -RA BKN005 BKN012 OVC060 17/17 A3010 RMK AO2 SLP186 CIG 003V007 P0001 T01720172 $
KCVG 241052Z 09007KT 5SM -RA BR BKN004 OVC014 17/17 A3011 RMK AO2 SLP189 P0007 T01720172 $
KCVG 241152Z 11006KT 6SM -RA BR BKN004 OVC009 18/18 A3011 RMK AO2 SLP190 P0004 60034 70034 T01780178 10178 20167 53004
KCVG 241255Z 12006KT 1SM R18C/P6000FT BR OVC004 18/18 A3012 RMK AO2 SFC VIS 5 T01830183
KCVG 241402Z 14008KT 3SM -RA BR SCT003 BKN050 OVC080 19/19 A3012 RMK AO2 SFC VIS 5 P0001 T01890189
KCVG 241452Z COR 13009KT 3SM -RA BKN033 BKN070 OVC110 19/19 A3012 RMK AO2 SFC VIS 4 SLP192 P0010 60015 T0189 51002 $
KCVG 241552Z 14009KT 3SM -RA BR FEW004 BKN080 OVC100 20/20 A3012 RMK AO2 SFC VIS 4 SLP191 P0013 T02000200
KCVG 241652Z 14009KT 3SM -RA BR BKN006 BKN031 OVC070 20/20 A3011 RMK AO2 SLP189 CIG RGD P0014 T02000200



Page loaded:  17:29 UTC  |   10:29 AM Pacific  |   11:29 AM Mountain  |   12:29 PM Central  |   01:29 PM Eastern

 

ADVISORIES

FORECASTS

FORECASTS

OBSERVATIONS

USER TOOLS

ABOUT US